Accueil
METAR-TAF:

METAR-TAF

Aéroports :

Beyrouth, Liban

latitude: 33-49N, longitude: 035-29E, altitude: 29 m

Observation

Le bulletin a été fait il y a 1 heure et 9 minutes, à 04:00 UTC
Vent 3 kt de sud
Température 25°C
Humidité 83%
Pression 1009 hPa
Visibilité: 7000 m
Quelques nuages à une hauteur de 2600 ft

METAR: OLBA 260400Z 18003KT 7000 FEW026 25/22 Q1009

Heure: 08:09 (05:09 UTC)


TAF: absent

Observations et prévisions météorologiques de plus de 4000 aéroports (messages METAR et TAF).

Les stations disponibles sont représentées par des disques jaunes et rouges sur la carte.

Passer la souris dessus pour voir le nom de la station.

Cliquer dessus pour voir les observations et prévisions météorologiques.

Pour changer de carte: cliquez sur les boutons verts avec une croix noire pour zoomer, sur le bouton vert avec un tiret pour effectuer un zoom arrière, ou sur les flèches vertes pour les cartes adjacentes.


METAR-TAF: